sensor_id;sensor_type;location;lat;lon;timestamp;P1;durP1;ratioP1;P2;durP2;ratioP2
26512;SDS011;14186;53.822;10.152;2023-07-08T00:02:33;15.77;;;12.35;;
26512;SDS011;14186;53.822;10.152;2023-07-08T00:07:33;18.67;;;13.35;;
26512;SDS011;14186;53.822;10.152;2023-07-08T00:12:33;16.38;;;12.68;;
26512;SDS011;14186;53.822;10.152;2023-07-08T00:17:35;16.63;;;11.60;;
26512;SDS011;14186;53.822;10.152;2023-07-08T00:22:35;22.27;;;14.52;;
26512;SDS011;14186;53.822;10.152;2023-07-08T00:27:35;21.23;;;13.40;;
26512;SDS011;14186;53.822;10.152;2023-07-08T00:32:37;18.40;;;14.05;;
26512;SDS011;14186;53.822;10.152;2023-07-08T00:37:37;18.67;;;14.23;;
26512;SDS011;14186;53.822;10.152;2023-07-08T00:42:37;17.23;;;14.07;;
26512;SDS011;14186;53.822;10.152;2023-07-08T00:47:39;18.05;;;14.02;;
26512;SDS011;14186;53.822;10.152;2023-07-08T00:52:39;20.60;;;15.25;;
26512;SDS011;14186;53.822;10.152;2023-07-08T00:57:40;20.73;;;16.05;;
26512;SDS011;14186;53.822;10.152;2023-07-08T01:02:43;24.25;;;17.33;;
26512;SDS011;14186;53.822;10.152;2023-07-08T01:07:47;20.92;;;15.75;;
26512;SDS011;14186;53.822;10.152;2023-07-08T01:12:50;21.63;;;15.85;;
26512;SDS011;14186;53.822;10.152;2023-07-08T01:17:53;22.77;;;17.00;;
26512;SDS011;14186;53.822;10.152;2023-07-08T01:22:55;25.13;;;16.85;;
26512;SDS011;14186;53.822;10.152;2023-07-08T01:27:57;26.58;;;19.70;;
26512;SDS011;14186;53.822;10.152;2023-07-08T01:32:59;25.83;;;19.08;;
26512;SDS011;14186;53.822;10.152;2023-07-08T01:38:01;26.08;;;19.55;;
26512;SDS011;14186;53.822;10.152;2023-07-08T01:43:03;26.35;;;19.70;;
26512;SDS011;14186;53.822;10.152;2023-07-08T01:48:05;27.95;;;20.02;;
26512;SDS011;14186;53.822;10.152;2023-07-08T01:53:09;28.30;;;21.50;;
26512;SDS011;14186;53.822;10.152;2023-07-08T01:58:09;31.13;;;21.40;;
26512;SDS011;14186;53.822;10.152;2023-07-08T02:03:09;28.42;;;20.48;;
26512;SDS011;14186;53.822;10.152;2023-07-08T02:08:11;24.88;;;20.02;;
26512;SDS011;14186;53.822;10.152;2023-07-08T02:13:11;31.48;;;22.52;;
26512;SDS011;14186;53.822;10.152;2023-07-08T02:18:11;30.83;;;23.10;;
26512;SDS011;14186;53.822;10.152;2023-07-08T02:23:13;34.10;;;24.02;;
26512;SDS011;14186;53.822;10.152;2023-07-08T02:28:13;35.30;;;25.90;;
26512;SDS011;14186;53.822;10.152;2023-07-08T02:33:13;32.13;;;24.58;;
26512;SDS011;14186;53.822;10.152;2023-07-08T02:38:15;30.17;;;23.17;;
26512;SDS011;14186;53.822;10.152;2023-07-08T02:43:15;33.10;;;24.77;;
26512;SDS011;14186;53.822;10.152;2023-07-08T02:48:16;34.42;;;23.67;;
26512;SDS011;14186;53.822;10.152;2023-07-08T02:53:18;33.13;;;23.60;;
26512;SDS011;14186;53.822;10.152;2023-07-08T02:58:18;31.27;;;23.38;;
26512;SDS011;14186;53.822;10.152;2023-07-08T03:03:18;32.90;;;24.30;;
26512;SDS011;14186;53.822;10.152;2023-07-08T03:08:20;31.65;;;24.38;;
26512;SDS011;14186;53.822;10.152;2023-07-08T03:13:20;30.38;;;24.55;;
26512;SDS011;14186;53.822;10.152;2023-07-08T03:18:20;32.28;;;23.58;;
26512;SDS011;14186;53.822;10.152;2023-07-08T03:23:22;32.42;;;23.27;;
26512;SDS011;14186;53.822;10.152;2023-07-08T03:28:22;30.33;;;21.63;;
26512;SDS011;14186;53.822;10.152;2023-07-08T03:33:22;29.55;;;23.23;;
26512;SDS011;14186;53.822;10.152;2023-07-08T03:38:24;28.02;;;21.75;;
26512;SDS011;14186;53.822;10.152;2023-07-08T03:43:24;28.95;;;22.27;;
26512;SDS011;14186;53.822;10.152;2023-07-08T03:48:24;29.50;;;20.98;;
26512;SDS011;14186;53.822;10.152;2023-07-08T03:53:26;23.58;;;18.45;;
26512;SDS011;14186;53.822;10.152;2023-07-08T03:58:26;21.23;;;16.85;;
26512;SDS011;14186;53.822;10.152;2023-07-08T04:03:26;17.73;;;14.68;;
26512;SDS011;14186;53.822;10.152;2023-07-08T04:08:28;16.92;;;13.95;;
26512;SDS011;14186;53.822;10.152;2023-07-08T04:13:28;20.70;;;15.45;;
26512;SDS011;14186;53.822;10.152;2023-07-08T04:18:28;19.20;;;14.75;;
26512;SDS011;14186;53.822;10.152;2023-07-08T04:23:30;17.00;;;11.35;;
26512;SDS011;14186;53.822;10.152;2023-07-08T04:28:30;13.93;;;10.27;;
26512;SDS011;14186;53.822;10.152;2023-07-08T04:33:30;11.13;;;9.82;;
26512;SDS011;14186;53.822;10.152;2023-07-08T04:38:32;11.25;;;8.43;;
26512;SDS011;14186;53.822;10.152;2023-07-08T04:43:32;12.57;;;8.13;;
26512;SDS011;14186;53.822;10.152;2023-07-08T04:48:32;12.10;;;7.63;;
26512;SDS011;14186;53.822;10.152;2023-07-08T04:53:34;8.80;;;5.93;;
26512;SDS011;14186;53.822;10.152;2023-07-08T04:58:34;6.82;;;3.92;;
26512;SDS011;14186;53.822;10.152;2023-07-08T05:03:34;9.07;;;3.78;;
26512;SDS011;14186;53.822;10.152;2023-07-08T05:08:36;6.80;;;3.08;;
26512;SDS011;14186;53.822;10.152;2023-07-08T05:13:36;5.20;;;3.17;;
26512;SDS011;14186;53.822;10.152;2023-07-08T05:18:36;5.68;;;3.40;;
26512;SDS011;14186;53.822;10.152;2023-07-08T05:23:38;4.95;;;2.90;;
26512;SDS011;14186;53.822;10.152;2023-07-08T05:28:38;6.90;;;3.20;;
26512;SDS011;14186;53.822;10.152;2023-07-08T05:33:39;7.07;;;3.08;;
26512;SDS011;14186;53.822;10.152;2023-07-08T05:38:40;5.83;;;2.73;;
26512;SDS011;14186;53.822;10.152;2023-07-08T05:43:40;7.47;;;2.90;;
26512;SDS011;14186;53.822;10.152;2023-07-08T05:48:41;5.25;;;3.17;;
26512;SDS011;14186;53.822;10.152;2023-07-08T05:53:42;7.30;;;3.00;;
26512;SDS011;14186;53.822;10.152;2023-07-08T05:58:42;5.85;;;3.45;;
26512;SDS011;14186;53.822;10.152;2023-07-08T06:03:42;5.82;;;2.95;;
26512;SDS011;14186;53.822;10.152;2023-07-08T06:08:44;7.45;;;3.50;;
26512;SDS011;14186;53.822;10.152;2023-07-08T06:13:44;6.53;;;3.22;;
26512;SDS011;14186;53.822;10.152;2023-07-08T06:18:44;5.27;;;3.07;;
26512;SDS011;14186;53.822;10.152;2023-07-08T06:23:46;6.80;;;3.35;;
26512;SDS011;14186;53.822;10.152;2023-07-08T06:28:46;5.93;;;3.30;;
26512;SDS011;14186;53.822;10.152;2023-07-08T06:33:46;6.38;;;3.20;;
26512;SDS011;14186;53.822;10.152;2023-07-08T06:38:48;8.25;;;3.20;;
26512;SDS011;14186;53.822;10.152;2023-07-08T06:43:48;5.40;;;2.90;;
26512;SDS011;14186;53.822;10.152;2023-07-08T06:48:48;4.80;;;3.00;;
26512;SDS011;14186;53.822;10.152;2023-07-08T06:53:50;6.00;;;3.30;;
26512;SDS011;14186;53.822;10.152;2023-07-08T06:58:50;5.05;;;2.88;;
26512;SDS011;14186;53.822;10.152;2023-07-08T07:03:50;3.42;;;2.53;;
26512;SDS011;14186;53.822;10.152;2023-07-08T07:08:52;5.38;;;3.10;;
26512;SDS011;14186;53.822;10.152;2023-07-08T07:13:52;3.83;;;2.75;;
26512;SDS011;14186;53.822;10.152;2023-07-08T07:18:52;5.43;;;2.92;;
26512;SDS011;14186;53.822;10.152;2023-07-08T07:23:54;6.07;;;2.70;;
26512;SDS011;14186;53.822;10.152;2023-07-08T07:28:54;5.20;;;2.38;;
26512;SDS011;14186;53.822;10.152;2023-07-08T07:33:54;5.07;;;2.58;;
26512;SDS011;14186;53.822;10.152;2023-07-08T07:38:56;4.57;;;2.60;;
26512;SDS011;14186;53.822;10.152;2023-07-08T07:43:56;6.00;;;2.60;;
26512;SDS011;14186;53.822;10.152;2023-07-08T07:48:56;3.97;;;2.30;;
26512;SDS011;14186;53.822;10.152;2023-07-08T07:53:58;30.70;;;8.32;;
26512;SDS011;14186;53.822;10.152;2023-07-08T07:58:58;8.88;;;4.38;;
26512;SDS011;14186;53.822;10.152;2023-07-08T08:03:58;3.75;;;1.92;;
26512;SDS011;14186;53.822;10.152;2023-07-08T08:09:00;5.75;;;2.38;;
26512;SDS011;14186;53.822;10.152;2023-07-08T08:14:00;5.28;;;2.17;;
26512;SDS011;14186;53.822;10.152;2023-07-08T08:19:00;4.38;;;2.20;;
26512;SDS011;14186;53.822;10.152;2023-07-08T08:24:02;13.98;;;3.03;;
26512;SDS011;14186;53.822;10.152;2023-07-08T08:29:02;5.15;;;2.20;;
26512;SDS011;14186;53.822;10.152;2023-07-08T08:34:03;7.70;;;2.50;;
26512;SDS011;14186;53.822;10.152;2023-07-08T08:39:04;4.82;;;2.33;;
26512;SDS011;14186;53.822;10.152;2023-07-08T08:44:04;8.30;;;2.88;;
26512;SDS011;14186;53.822;10.152;2023-07-08T08:49:08;3.47;;;2.42;;
26512;SDS011;14186;53.822;10.152;2023-07-08T08:54:14;4.68;;;2.30;;
26512;SDS011;14186;53.822;10.152;2023-07-08T08:59:18;3.78;;;1.85;;
26512;SDS011;14186;53.822;10.152;2023-07-08T09:04:21;4.60;;;2.10;;
26512;SDS011;14186;53.822;10.152;2023-07-08T09:09:24;5.88;;;2.28;;
26512;SDS011;14186;53.822;10.152;2023-07-08T09:14:29;5.35;;;2.33;;
26512;SDS011;14186;53.822;10.152;2023-07-08T09:19:30;4.82;;;2.03;;
26512;SDS011;14186;53.822;10.152;2023-07-08T09:24:35;5.88;;;2.30;;
26512;SDS011;14186;53.822;10.152;2023-07-08T09:29:37;3.38;;;1.88;;
26512;SDS011;14186;53.822;10.152;2023-07-08T09:34:40;4.53;;;2.42;;
26512;SDS011;14186;53.822;10.152;2023-07-08T09:39:42;3.92;;;2.35;;
26512;SDS011;14186;53.822;10.152;2023-07-08T09:44:44;4.28;;;2.00;;
26512;SDS011;14186;53.822;10.152;2023-07-08T09:49:44;4.70;;;2.05;;
26512;SDS011;14186;53.822;10.152;2023-07-08T09:54:46;5.57;;;2.50;;
26512;SDS011;14186;53.822;10.152;2023-07-08T09:59:47;3.92;;;1.85;;
26512;SDS011;14186;53.822;10.152;2023-07-08T10:04:51;3.72;;;2.50;;
26512;SDS011;14186;53.822;10.152;2023-07-08T10:09:53;7.32;;;2.25;;
26512;SDS011;14186;53.822;10.152;2023-07-08T10:14:56;4.32;;;2.15;;
26512;SDS011;14186;53.822;10.152;2023-07-08T10:19:58;6.30;;;2.23;;
26512;SDS011;14186;53.822;10.152;2023-07-08T10:25:04;6.88;;;2.15;;
26512;SDS011;14186;53.822;10.152;2023-07-08T10:30:12;5.35;;;2.47;;
26512;SDS011;14186;53.822;10.152;2023-07-08T10:35:14;4.15;;;1.90;;
26512;SDS011;14186;53.822;10.152;2023-07-08T10:40:21;8.00;;;2.00;;
26512;SDS011;14186;53.822;10.152;2023-07-08T10:45:26;4.15;;;2.28;;
26512;SDS011;14186;53.822;10.152;2023-07-08T10:50:39;3.45;;;1.98;;
26512;SDS011;14186;53.822;10.152;2023-07-08T11:00:46;5.40;;;2.53;;
26512;SDS011;14186;53.822;10.152;2023-07-08T11:05:49;3.60;;;2.40;;
26512;SDS011;14186;53.822;10.152;2023-07-08T11:10:51;4.00;;;2.28;;
26512;SDS011;14186;53.822;10.152;2023-07-08T11:15:56;5.93;;;2.08;;
26512;SDS011;14186;53.822;10.152;2023-07-08T11:20:58;4.13;;;2.30;;
26512;SDS011;14186;53.822;10.152;2023-07-08T11:26:03;3.90;;;1.90;;
26512;SDS011;14186;53.822;10.152;2023-07-08T11:31:06;5.78;;;2.40;;
26512;SDS011;14186;53.822;10.152;2023-07-08T11:36:06;3.80;;;1.92;;
26512;SDS011;14186;53.822;10.152;2023-07-08T11:41:11;3.00;;;1.98;;
26512;SDS011;14186;53.822;10.152;2023-07-08T11:46:14;3.95;;;2.10;;
26512;SDS011;14186;53.822;10.152;2023-07-08T11:51:17;7.57;;;3.33;;
26512;SDS011;14186;53.822;10.152;2023-07-08T11:56:19;4.70;;;3.10;;
26512;SDS011;14186;53.822;10.152;2023-07-08T12:01:23;5.38;;;2.95;;
26512;SDS011;14186;53.822;10.152;2023-07-08T12:06:46;5.55;;;2.70;;
26512;SDS011;14186;53.822;10.152;2023-07-08T12:11:47;5.40;;;2.58;;
26512;SDS011;14186;53.822;10.152;2023-07-08T12:16:48;7.68;;;2.75;;
26512;SDS011;14186;53.822;10.152;2023-07-08T12:21:49;3.20;;;2.15;;
26512;SDS011;14186;53.822;10.152;2023-07-08T12:26:49;3.58;;;2.30;;
26512;SDS011;14186;53.822;10.152;2023-07-08T12:31:50;5.22;;;2.90;;
26512;SDS011;14186;53.822;10.152;2023-07-08T12:36:50;7.18;;;2.55;;
26512;SDS011;14186;53.822;10.152;2023-07-08T12:41:51;4.78;;;2.28;;
26512;SDS011;14186;53.822;10.152;2023-07-08T12:46:53;4.30;;;2.42;;
26512;SDS011;14186;53.822;10.152;2023-07-08T12:51:53;5.03;;;2.75;;
26512;SDS011;14186;53.822;10.152;2023-07-08T12:56:53;3.28;;;2.10;;
26512;SDS011;14186;53.822;10.152;2023-07-08T13:01:55;4.22;;;2.50;;
26512;SDS011;14186;53.822;10.152;2023-07-08T13:06:55;3.88;;;2.35;;
26512;SDS011;14186;53.822;10.152;2023-07-08T13:11:56;3.45;;;2.05;;
26512;SDS011;14186;53.822;10.152;2023-07-08T13:16:58;5.57;;;2.78;;
26512;SDS011;14186;53.822;10.152;2023-07-08T13:21:58;6.63;;;2.42;;
26512;SDS011;14186;53.822;10.152;2023-07-08T13:26:58;3.67;;;2.22;;
26512;SDS011;14186;53.822;10.152;2023-07-08T13:32:03;7.20;;;2.80;;
26512;SDS011;14186;53.822;10.152;2023-07-08T13:37:04;5.20;;;2.35;;
26512;SDS011;14186;53.822;10.152;2023-07-08T13:42:09;6.82;;;2.90;;
26512;SDS011;14186;53.822;10.152;2023-07-08T13:47:19;5.93;;;2.58;;
26512;SDS011;14186;53.822;10.152;2023-07-08T13:52:21;3.63;;;2.47;;
26512;SDS011;14186;53.822;10.152;2023-07-08T13:57:22;5.50;;;3.17;;
26512;SDS011;14186;53.822;10.152;2023-07-08T14:02:24;5.25;;;2.75;;
26512;SDS011;14186;53.822;10.152;2023-07-08T14:07:26;7.13;;;2.60;;
26512;SDS011;14186;53.822;10.152;2023-07-08T14:12:26;5.95;;;2.40;;
26512;SDS011;14186;53.822;10.152;2023-07-08T14:17:28;3.13;;;2.25;;
26512;SDS011;14186;53.822;10.152;2023-07-08T14:22:28;4.25;;;2.20;;
26512;SDS011;14186;53.822;10.152;2023-07-08T14:27:29;8.15;;;2.85;;
26512;SDS011;14186;53.822;10.152;2023-07-08T23:38:28;5.53;;;2.42;;
26512;SDS011;14186;53.822;10.152;2023-07-08T23:43:29;5.00;;;2.00;;
26512;SDS011;14186;53.822;10.152;2023-07-08T23:48:29;4.65;;;2.13;;
26512;SDS011;14186;53.822;10.152;2023-07-08T23:53:30;7.82;;;2.60;;
26512;SDS011;14186;53.822;10.152;2023-07-08T23:58:31;6.75;;;3.22;;
